Dr. Ulrich Godt
Wetterdaten: aktuell Freitag, 15.02.2019 08:03
Datum Zeit Temp. A. Temp Boden Feuchte A. Luftdruck Regen Wind Richtung Richtung Sonnenschein Windchill
15.02.2019 08:03 -2,2 C 1,7 C 76 % 1033,9 hPa 0,0 l/m 0,0 km/h (0 Bft) W-NW 290 10 min -2,2 C
15.02.2019 07:53 -2,2 C 1,8 C 76 % 1033,9 hPa 0,0 l/m 0,0 km/h (0 Bft) W-NW 290 9 min -2,2 C
15.02.2019 07:44 -2,2 C 1,6 C 76 % 1033,9 hPa 0,0 l/m 0,0 km/h (0 Bft) W-NW 290 0 min -2,2 C
15.02.2019 07:34 -2,2 C 1,7 C 76 % 1033,9 hPa 0,0 l/m 0,0 km/h (0 Bft) W-NW 290 0 min -2,2 C
15.02.2019 07:24 -2,2 C 1,7 C 76 % 1033,9 hPa 0,0 l/m 0,0 km/h (0 Bft) W-NW 290 0 min -2,2 C
15.02.2019 07:13 -2,2 C 1,8 C 76 % 1033,9 hPa 0,0 l/m 0,0 km/h (0 Bft) W-NW 290 0 min -2,2 C
15.02.2019 07:03 -2,1 C 1,7 C 75 % 1033,9 hPa 0,0 l/m 0,0 km/h (0 Bft) W-NW 290 0 min -2,1 C
15.02.2019 06:53 -2,1 C 1,9 C 75 % 1033,9 hPa 0,0 l/m 0,0 km/h (0 Bft) W-NW 290 0 min -2,1 C
15.02.2019 06:44 -2,1 C 2,0 C 75 % 1033,9 hPa 0,0 l/m 0,0 km/h (0 Bft) W-NW 290 0 min -2,1 C
15.02.2019 06:34 -2,1 C 1,9 C 75 % 1033,9 hPa 0,0 l/m 0,0 km/h (0 Bft) W-NW 290 0 min -2,1 C
15.02.2019 06:23 -2,0 C 2,0 C 75 % 1033,9 hPa 0,0 l/m 0,0 km/h (0 Bft) W-NW 290 0 min -2,0 C
15.02.2019 06:13 -2,0 C 2,0 C 75 % 1033,9 hPa 0,0 l/m 0,0 km/h (0 Bft) W-NW 290 0 min -2,0 C
15.02.2019 06:03 -2,0 C 2,1 C 74 % 1033,9 hPa 0,0 l/m 0,0 km/h (0 Bft) W-NW 290 0 min -2,0 C
15.02.2019 05:53 -2,0 C 2,0 C 74 % 1033,9 hPa 0,0 l/m 0,0 km/h (0 Bft) W-NW 290 0 min -2,0 C
15.02.2019 05:44 -1,9 C 1,8 C 74 % 1033,9 hPa 0,0 l/m 0,0 km/h (0 Bft) W-NW 290 0 min -1,9 C
15.02.2019 05:34 -1,9 C 2,0 C 74 % 1033,9 hPa 0,0 l/m 0,0 km/h (0 Bft) W-NW 290 0 min -1,9 C
15.02.2019 05:23 -1,8 C 2,1 C 74 % 1033,9 hPa 0,0 l/m 0,0 km/h (0 Bft) W-NW 290 0 min -1,8 C
15.02.2019 05:13 -1,8 C 2,1 C 74 % 1033,9 hPa 0,0 l/m 0,0 km/h (0 Bft) W-NW 290 0 min -1,8 C
15.02.2019 05:03 -1,7 C 2,3 C 74 % 1033,9 hPa 0,0 l/m 0,0 km/h (0 Bft) W-NW 290 0 min -1,7 C
15.02.2019 04:53 -1,7 C 2,3 C 74 % 1033,9 hPa 0,0 l/m 0,0 km/h (0 Bft) W-NW 290 0 min -1,7 C
15.02.2019 04:44 -1,6 C 2,3 C 74 % 1033,9 hPa 0,0 l/m 0,0 km/h (0 Bft) W-NW 290 0 min -1,6 C
15.02.2019 04:34 -1,6 C 2,5 C 73 % 1033,9 hPa 0,0 l/m 0,0 km/h (0 Bft) W-NW 290 0 min -1,6 C
15.02.2019 04:23 -1,6 C 2,4 C 73 % 1033,9 hPa 0,0 l/m 0,0 km/h (0 Bft) W-NW 290 0 min -1,6 C
15.02.2019 04:13 -1,6 C 2,6 C 73 % 1033,9 hPa 0,0 l/m 0,0 km/h (0 Bft) W-NW 290 0 min -1,6 C
15.02.2019 04:03 -1,6 C 2,6 C 73 % 1033,9 hPa 0,0 l/m 0,0 km/h (0 Bft) W-NW 290 0 min -1,6 C
15.02.2019 03:54 -1,6 C 2,6 C 72 % 1033,9 hPa 0,0 l/m 0,0 km/h (0 Bft) W-NW 290 0 min -1,6 C
15.02.2019 03:44 -1,6 C 2,6 C 72 % 1033,9 hPa 0,0 l/m 0,0 km/h (0 Bft) W-NW 290 0 min -1,6 C
15.02.2019 03:34 -1,5 C 2,6 C 72 % 1034,9 hPa 0,0 l/m 0,0 km/h (0 Bft) W-NW 290 0 min -1,5 C
15.02.2019 03:23 -1,5 C 2,5 C 72 % 1034,9 hPa 0,0 l/m 0,0 km/h (0 Bft) W-NW 290 0 min -1,5 C
15.02.2019 03:13 -1,5 C 2,7 C 72 % 1034,9 hPa 0,0 l/m 0,0 km/h (0 Bft) W-NW 290 0 min -1,5 C
15.02.2019 03:03 -1,4 C 2,7 C 71 % 1034,9 hPa 0,0 l/m 0,0 km/h (0 Bft) W-NW 290 0 min -1,4 C
15.02.2019 02:54 -1,4 C 2,6 C 71 % 1034,9 hPa 0,0 l/m 0,0 km/h (0 Bft) W-NW 290 0 min -1,4 C
15.02.2019 02:44 -1,3 C 2,7 C 71 % 1034,9 hPa 0,0 l/m 0,0 km/h (0 Bft) W-NW 290 0 min -1,3 C
15.02.2019 02:34 -1,3 C 2,9 C 71 % 1034,9 hPa 0,0 l/m 0,0 km/h (0 Bft) W-NW 290 0 min -1,3 C
15.02.2019 02:23 -1,2 C 2,8 C 70 % 1034,9 hPa 0,0 l/m 0,0 km/h (0 Bft) W-NW 290 0 min -1,2 C
15.02.2019 02:13 -1,2 C 2,9 C 70 % 1034,9 hPa 0,0 l/m 0,0 km/h (0 Bft) W-NW 290 0 min -1,2 C
15.02.2019 02:03 -1,1 C 2,9 C 70 % 1034,8 hPa 0,0 l/m 0,0 km/h (0 Bft) W-NW 290 0 min -1,1 C
15.02.2019 01:54 -1,0 C 3,0 C 69 % 1034,8 hPa 0,0 l/m 0,0 km/h (0 Bft) W-NW 290 0 min -1,0 C
15.02.2019 01:44 -0,9 C 3,0 C 69 % 1034,8 hPa 0,0 l/m 0,0 km/h (0 Bft) W-NW 290 0 min -0,9 C
15.02.2019 01:33 -0,6 C 3,1 C 69 % 1034,8 hPa 0,0 l/m 0,0 km/h (0 Bft) W-NW 290 0 min -0,6 C
15.02.2019 01:23 -0,6 C 3,4 C 69 % 1034,8 hPa 0,0 l/m 0,0 km/h (0 Bft) W-NW 290 0 min -0,6 C
15.02.2019 01:13 -0,5 C 3,4 C 68 % 1034,8 hPa 0,0 l/m 0,0 km/h (0 Bft) W-NW 290 0 min -0,5 C
15.02.2019 01:04 -0,5 C 3,5 C 68 % 1034,8 hPa 0,0 l/m 0,0 km/h (0 Bft) W-NW 290 0 min -0,5 C
15.02.2019 00:54 -0,4 C 3,4 C 68 % 1034,8 hPa 0,0 l/m 0,0 km/h (0 Bft) W-NW 290 0 min -0,4 C
15.02.2019 00:44 -0,3 C 3,6 C 68 % 1034,8 hPa 0,0 l/m 0,0 km/h (0 Bft) W-NW 290 0 min -0,3 C
15.02.2019 00:33 -0,3 C 3,7 C 68 % 1034,8 hPa 0,0 l/m 0,0 km/h (0 Bft) W-NW 290 0 min -0,3 C
15.02.2019 00:23 -0,1 C 3,7 C 68 % 1034,8 hPa 0,0 l/m 0,0 km/h (0 Bft) W-NW 290 0 min -0,1 C
15.02.2019 00:13 0,1 C 3,7 C 67 % 1034,8 hPa 0,0 l/m 0,0 km/h (0 Bft) W-NW 290 0 min 0,1 C
15.02.2019 00:04 0,2 C 3,9 C 66 % 1034,8 hPa 0,0 l/m 0,0 km/h (0 Bft) W-NW 290 0 min 0,2 C
_ Min-Zeit 07:13 07:44 00:04 03:44 - 00:04 - - - 07:13
Minimum _ -2,2 C 1,6 C 66 % 1033,9 hPa - 0,0 km/h (0 Bft) - - - -2,2 C
_ Max-Zeit 00:04 00:04 07:13 03:13 00:04 00:04 - - 08:03 00:04
Maximum _ 0,2 C 3,9 C 76 % 1034,9 hPa 0,0 l/m 0,0 km/h
W-NW (0 Bft)
- - 10 min 0,2 C
Durchschnitt _ -1,4 C 2,5 C 72 % 1034,3 hPa #0,0 l/m 0,0 km/h (0 Bft) - - - #19 min. -1,4 C